sensor_id;sensor_type;location;lat;lon;timestamp;temperature;humidity
14119;DHT22;7138;49.246;9.100;2023-07-31T00:01:50;15.40;99.90
14119;DHT22;7138;49.246;9.100;2023-07-31T00:04:16;15.40;99.90
14119;DHT22;7138;49.246;9.100;2023-07-31T00:06:41;15.40;99.90
14119;DHT22;7138;49.246;9.100;2023-07-31T00:09:09;15.40;99.90
14119;DHT22;7138;49.246;9.100;2023-07-31T00:11:34;15.50;99.90
14119;DHT22;7138;49.246;9.100;2023-07-31T00:14:00;15.50;99.90
14119;DHT22;7138;49.246;9.100;2023-07-31T00:16:26;15.50;99.90
14119;DHT22;7138;49.246;9.100;2023-07-31T00:18:52;15.50;99.90
14119;DHT22;7138;49.246;9.100;2023-07-31T00:21:18;15.50;99.90
14119;DHT22;7138;49.246;9.100;2023-07-31T00:23:44;15.50;99.90
14119;DHT22;7138;49.246;9.100;2023-07-31T00:26:11;15.50;99.90
14119;DHT22;7138;49.246;9.100;2023-07-31T00:28:37;15.50;99.90
14119;DHT22;7138;49.246;9.100;2023-07-31T00:31:03;15.50;99.90
14119;DHT22;7138;49.246;9.100;2023-07-31T00:33:30;15.60;99.90
14119;DHT22;7138;49.246;9.100;2023-07-31T00:35:56;15.50;99.90
14119;DHT22;7138;49.246;9.100;2023-07-31T00:38:22;15.60;99.90
14119;DHT22;7138;49.246;9.100;2023-07-31T00:40:48;15.60;99.90
14119;DHT22;7138;49.246;9.100;2023-07-31T00:43:15;15.60;99.90
14119;DHT22;7138;49.246;9.100;2023-07-31T00:45:41;15.50;99.90
14119;DHT22;7138;49.246;9.100;2023-07-31T00:48:07;15.50;99.90
14119;DHT22;7138;49.246;9.100;2023-07-31T00:50:33;15.50;99.90
14119;DHT22;7138;49.246;9.100;2023-07-31T00:53:00;15.60;99.90
14119;DHT22;7138;49.246;9.100;2023-07-31T00:55:26;15.60;99.90
14119;DHT22;7138;49.246;9.100;2023-07-31T00:57:52;15.60;99.90
14119;DHT22;7138;49.246;9.100;2023-07-31T01:00:22;15.60;99.90
14119;DHT22;7138;49.246;9.100;2023-07-31T01:02:48;15.60;99.90
14119;DHT22;7138;49.246;9.100;2023-07-31T01:05:15;15.60;99.90
14119;DHT22;7138;49.246;9.100;2023-07-31T01:07:49;15.50;99.90
14119;DHT22;7138;49.246;9.100;2023-07-31T01:10:23;15.50;99.90
14119;DHT22;7138;49.246;9.100;2023-07-31T01:12:56;15.50;99.90
14119;DHT22;7138;49.246;9.100;2023-07-31T01:15:24;15.60;99.90
14119;DHT22;7138;49.246;9.100;2023-07-31T01:17:50;15.60;99.90
14119;DHT22;7138;49.246;9.100;2023-07-31T01:20:20;15.60;99.90
14119;DHT22;7138;49.246;9.100;2023-07-31T01:23:06;15.60;99.90
14119;DHT22;7138;49.246;9.100;2023-07-31T01:26:00;15.50;99.90
14119;DHT22;7138;49.246;9.100;2023-07-31T01:28:40;15.50;99.90
14119;DHT22;7138;49.246;9.100;2023-07-31T01:31:15;15.40;99.90
14119;DHT22;7138;49.246;9.100;2023-07-31T01:33:44;15.40;99.90
14119;DHT22;7138;49.246;9.100;2023-07-31T01:36:11;15.50;99.90
14119;DHT22;7138;49.246;9.100;2023-07-31T01:38:37;15.50;99.90
14119;DHT22;7138;49.246;9.100;2023-07-31T01:41:04;15.50;99.90
14119;DHT22;7138;49.246;9.100;2023-07-31T01:43:30;15.50;99.90
14119;DHT22;7138;49.246;9.100;2023-07-31T01:45:56;15.50;99.90
14119;DHT22;7138;49.246;9.100;2023-07-31T01:48:22;15.60;99.90
14119;DHT22;7138;49.246;9.100;2023-07-31T01:50:48;15.70;99.90
14119;DHT22;7138;49.246;9.100;2023-07-31T01:53:14;15.70;99.90
14119;DHT22;7138;49.246;9.100;2023-07-31T01:55:40;15.70;99.90
14119;DHT22;7138;49.246;9.100;2023-07-31T01:58:07;15.80;99.90
14119;DHT22;7138;49.246;9.100;2023-07-31T02:00:33;15.70;99.90
14119;DHT22;7138;49.246;9.100;2023-07-31T02:02:59;15.70;99.90
14119;DHT22;7138;49.246;9.100;2023-07-31T02:05:25;15.60;99.90
14119;DHT22;7138;49.246;9.100;2023-07-31T02:07:51;15.60;99.90
14119;DHT22;7138;49.246;9.100;2023-07-31T02:10:17;15.60;99.90
14119;DHT22;7138;49.246;9.100;2023-07-31T02:12:43;15.50;99.90
14119;DHT22;7138;49.246;9.100;2023-07-31T02:15:10;15.50;99.90
14119;DHT22;7138;49.246;9.100;2023-07-31T02:17:36;15.50;99.90
14119;DHT22;7138;49.246;9.100;2023-07-31T02:20:02;15.50;99.90
14119;DHT22;7138;49.246;9.100;2023-07-31T02:22:28;15.50;99.90
14119;DHT22;7138;49.246;9.100;2023-07-31T02:24:54;15.50;99.90
14119;DHT22;7138;49.246;9.100;2023-07-31T02:27:20;15.40;99.90
14119;DHT22;7138;49.246;9.100;2023-07-31T02:29:49;15.40;99.90
14119;DHT22;7138;49.246;9.100;2023-07-31T02:32:16;15.40;99.90
14119;DHT22;7138;49.246;9.100;2023-07-31T02:34:42;15.40;99.90
14119;DHT22;7138;49.246;9.100;2023-07-31T02:37:08;15.40;99.90
14119;DHT22;7138;49.246;9.100;2023-07-31T02:39:34;15.40;99.90
14119;DHT22;7138;49.246;9.100;2023-07-31T02:42:00;15.30;99.90
14119;DHT22;7138;49.246;9.100;2023-07-31T02:44:26;15.30;99.90
14119;DHT22;7138;49.246;9.100;2023-07-31T02:46:51;15.30;99.90
14119;DHT22;7138;49.246;9.100;2023-07-31T02:49:19;15.30;99.90
14119;DHT22;7138;49.246;9.100;2023-07-31T02:51:44;15.40;99.90
14119;DHT22;7138;49.246;9.100;2023-07-31T02:54:10;15.30;99.90
14119;DHT22;7138;49.246;9.100;2023-07-31T02:56:36;15.30;99.90
14119;DHT22;7138;49.246;9.100;2023-07-31T02:59:02;15.30;99.90
14119;DHT22;7138;49.246;9.100;2023-07-31T03:01:27;15.30;99.90
14119;DHT22;7138;49.246;9.100;2023-07-31T03:03:53;15.30;99.90
14119;DHT22;7138;49.246;9.100;2023-07-31T03:06:21;15.20;99.90
14119;DHT22;7138;49.246;9.100;2023-07-31T03:08:46;15.20;99.90
14119;DHT22;7138;49.246;9.100;2023-07-31T03:11:12;15.20;99.90
14119;DHT22;7138;49.246;9.100;2023-07-31T03:13:38;15.10;99.90
14119;DHT22;7138;49.246;9.100;2023-07-31T03:16:04;15.00;99.90
14119;DHT22;7138;49.246;9.100;2023-07-31T03:18:30;15.00;99.90
14119;DHT22;7138;49.246;9.100;2023-07-31T03:20:55;15.00;99.90
14119;DHT22;7138;49.246;9.100;2023-07-31T03:23:23;15.00;99.90
14119;DHT22;7138;49.246;9.100;2023-07-31T03:25:57;15.00;99.90
14119;DHT22;7138;49.246;9.100;2023-07-31T03:28:23;15.00;99.90
14119;DHT22;7138;49.246;9.100;2023-07-31T03:30:49;15.00;99.90
14119;DHT22;7138;49.246;9.100;2023-07-31T03:33:14;15.00;99.90
14119;DHT22;7138;49.246;9.100;2023-07-31T03:35:40;15.00;99.90
14119;DHT22;7138;49.246;9.100;2023-07-31T03:38:06;15.00;99.90
14119;DHT22;7138;49.246;9.100;2023-07-31T03:40:33;15.00;99.90
14119;DHT22;7138;49.246;9.100;2023-07-31T03:42:59;15.00;99.90
14119;DHT22;7138;49.246;9.100;2023-07-31T03:45:25;15.00;99.90
14119;DHT22;7138;49.246;9.100;2023-07-31T03:47:51;15.00;99.90
14119;DHT22;7138;49.246;9.100;2023-07-31T03:50:17;14.90;99.90
14119;DHT22;7138;49.246;9.100;2023-07-31T03:52:42;14.90;99.90
14119;DHT22;7138;49.246;9.100;2023-07-31T03:55:08;14.80;99.90
14119;DHT22;7138;49.246;9.100;2023-07-31T03:57:36;14.80;99.90
14119;DHT22;7138;49.246;9.100;2023-07-31T04:00:01;14.80;99.90
14119;DHT22;7138;49.246;9.100;2023-07-31T04:02:28;14.80;99.90
14119;DHT22;7138;49.246;9.100;2023-07-31T04:04:53;14.80;99.90
14119;DHT22;7138;49.246;9.100;2023-07-31T04:07:19;14.70;99.90
14119;DHT22;7138;49.246;9.100;2023-07-31T04:09:45;14.80;99.90
14119;DHT22;7138;49.246;9.100;2023-07-31T04:12:11;14.70;99.90
14119;DHT22;7138;49.246;9.100;2023-07-31T04:14:38;14.80;99.90
14119;DHT22;7138;49.246;9.100;2023-07-31T04:17:04;14.70;99.90
14119;DHT22;7138;49.246;9.100;2023-07-31T04:19:30;14.80;99.90
14119;DHT22;7138;49.246;9.100;2023-07-31T04:21:56;14.80;99.90
14119;DHT22;7138;49.246;9.100;2023-07-31T04:24:22;14.80;99.90
14119;DHT22;7138;49.246;9.100;2023-07-31T04:26:50;14.80;99.90
14119;DHT22;7138;49.246;9.100;2023-07-31T04:29:15;14.80;99.90
14119;DHT22;7138;49.246;9.100;2023-07-31T04:31:43;14.90;99.90
14119;DHT22;7138;49.246;9.100;2023-07-31T04:34:08;15.00;99.90
14119;DHT22;7138;49.246;9.100;2023-07-31T04:36:35;15.00;99.90
14119;DHT22;7138;49.246;9.100;2023-07-31T04:39:01;15.00;99.90
14119;DHT22;7138;49.246;9.100;2023-07-31T04:41:27;15.10;99.90
14119;DHT22;7138;49.246;9.100;2023-07-31T04:43:53;15.10;99.90
14119;DHT22;7138;49.246;9.100;2023-07-31T04:46:19;15.10;99.90
14119;DHT22;7138;49.246;9.100;2023-07-31T04:48:46;15.20;99.90
14119;DHT22;7138;49.246;9.100;2023-07-31T04:51:12;15.20;99.90
14119;DHT22;7138;49.246;9.100;2023-07-31T04:53:38;15.20;99.90
14119;DHT22;7138;49.246;9.100;2023-07-31T04:56:04;15.20;99.90
14119;DHT22;7138;49.246;9.100;2023-07-31T04:58:30;15.20;99.90
14119;DHT22;7138;49.246;9.100;2023-07-31T05:00:56;15.20;99.90
14119;DHT22;7138;49.246;9.100;2023-07-31T05:03:22;15.20;99.90
14119;DHT22;7138;49.246;9.100;2023-07-31T05:05:49;15.20;99.90
14119;DHT22;7138;49.246;9.100;2023-07-31T05:08:16;15.20;99.90
14119;DHT22;7138;49.246;9.100;2023-07-31T05:10:43;15.20;99.90
14119;DHT22;7138;49.246;9.100;2023-07-31T05:13:08;15.30;99.90
14119;DHT22;7138;49.246;9.100;2023-07-31T05:15:34;15.40;99.90
14119;DHT22;7138;49.246;9.100;2023-07-31T05:18:00;15.50;99.90
14119;DHT22;7138;49.246;9.100;2023-07-31T05:20:27;15.50;99.90
14119;DHT22;7138;49.246;9.100;2023-07-31T05:22:54;15.50;99.90
14119;DHT22;7138;49.246;9.100;2023-07-31T05:25:20;15.60;99.90
14119;DHT22;7138;49.246;9.100;2023-07-31T05:27:46;15.70;99.90
14119;DHT22;7138;49.246;9.100;2023-07-31T05:30:12;15.70;99.90
14119;DHT22;7138;49.246;9.100;2023-07-31T05:32:37;15.80;99.90
14119;DHT22;7138;49.246;9.100;2023-07-31T05:35:04;15.90;99.90
14119;DHT22;7138;49.246;9.100;2023-07-31T05:37:30;16.00;99.90
14119;DHT22;7138;49.246;9.100;2023-07-31T05:39:58;16.20;99.90
14119;DHT22;7138;49.246;9.100;2023-07-31T05:42:24;16.30;99.90
14119;DHT22;7138;49.246;9.100;2023-07-31T05:44:50;16.40;99.90
14119;DHT22;7138;49.246;9.100;2023-07-31T05:47:15;16.50;99.90
14119;DHT22;7138;49.246;9.100;2023-07-31T05:49:41;16.50;99.90
14119;DHT22;7138;49.246;9.100;2023-07-31T05:52:07;16.50;99.90
14119;DHT22;7138;49.246;9.100;2023-07-31T05:54:33;16.60;99.90
14119;DHT22;7138;49.246;9.100;2023-07-31T05:57:00;16.70;99.90
14119;DHT22;7138;49.246;9.100;2023-07-31T05:59:26;16.80;99.90
14119;DHT22;7138;49.246;9.100;2023-07-31T06:01:52;16.80;99.90
14119;DHT22;7138;49.246;9.100;2023-07-31T06:04:18;16.90;99.90
14119;DHT22;7138;49.246;9.100;2023-07-31T06:06:44;16.90;99.90
14119;DHT22;7138;49.246;9.100;2023-07-31T06:09:10;17.20;99.90
14119;DHT22;7138;49.246;9.100;2023-07-31T06:11:37;17.60;99.90
14119;DHT22;7138;49.246;9.100;2023-07-31T06:14:04;17.90;99.90
14119;DHT22;7138;49.246;9.100;2023-07-31T06:16:30;18.90;99.90
14119;DHT22;7138;49.246;9.100;2023-07-31T06:18:56;19.60;99.90
14119;DHT22;7138;49.246;9.100;2023-07-31T06:21:21;19.60;99.90
14119;DHT22;7138;49.246;9.100;2023-07-31T06:23:48;20.30;99.90
14119;DHT22;7138;49.246;9.100;2023-07-31T06:26:14;20.90;99.90
14119;DHT22;7138;49.246;9.100;2023-07-31T06:28:40;20.70;99.90
14119;DHT22;7138;49.246;9.100;2023-07-31T06:31:07;20.50;99.90
14119;DHT22;7138;49.246;9.100;2023-07-31T06:33:33;20.30;99.90
14119;DHT22;7138;49.246;9.100;2023-07-31T06:35:59;20.10;99.90
14119;DHT22;7138;49.246;9.100;2023-07-31T06:38:26;19.80;99.90
14119;DHT22;7138;49.246;9.100;2023-07-31T06:40:52;19.60;99.90
14119;DHT22;7138;49.246;9.100;2023-07-31T06:43:18;19.30;99.90
14119;DHT22;7138;49.246;9.100;2023-07-31T06:45:44;18.90;99.90
14119;DHT22;7138;49.246;9.100;2023-07-31T06:48:12;18.80;99.90
14119;DHT22;7138;49.246;9.100;2023-07-31T06:50:38;18.60;99.90
14119;DHT22;7138;49.246;9.100;2023-07-31T06:53:04;18.50;99.90
14119;DHT22;7138;49.246;9.100;2023-07-31T06:55:30;18.50;99.90
14119;DHT22;7138;49.246;9.100;2023-07-31T06:57:56;18.60;99.90
14119;DHT22;7138;49.246;9.100;2023-07-31T07:00:23;18.50;99.90
14119;DHT22;7138;49.246;9.100;2023-07-31T07:02:49;18.50;99.90
14119;DHT22;7138;49.246;9.100;2023-07-31T07:05:17;18.40;99.90
14119;DHT22;7138;49.246;9.100;2023-07-31T07:07:44;18.30;99.90
14119;DHT22;7138;49.246;9.100;2023-07-31T07:10:10;18.40;99.90
14119;DHT22;7138;49.246;9.100;2023-07-31T07:12:55;18.40;99.90
14119;DHT22;7138;49.246;9.100;2023-07-31T07:15:20;18.30;99.90
14119;DHT22;7138;49.246;9.100;2023-07-31T07:17:46;18.30;99.90
14119;DHT22;7138;49.246;9.100;2023-07-31T07:20:12;18.30;99.90
14119;DHT22;7138;49.246;9.100;2023-07-31T07:22:40;18.40;99.90
14119;DHT22;7138;49.246;9.100;2023-07-31T07:25:08;18.30;99.90
14119;DHT22;7138;49.246;9.100;2023-07-31T07:27:34;18.30;99.90
14119;DHT22;7138;49.246;9.100;2023-07-31T07:30:01;18.30;99.90
14119;DHT22;7138;49.246;9.100;2023-07-31T07:32:27;18.30;99.90
14119;DHT22;7138;49.246;9.100;2023-07-31T07:34:52;18.40;99.90
14119;DHT22;7138;49.246;9.100;2023-07-31T07:37:18;19.10;99.90
14119;DHT22;7138;49.246;9.100;2023-07-31T07:39:45;19.50;99.90
14119;DHT22;7138;49.246;9.100;2023-07-31T07:42:11;19.90;99.90
14119;DHT22;7138;49.246;9.100;2023-07-31T07:44:37;20.00;99.90
14119;DHT22;7138;49.246;9.100;2023-07-31T07:47:03;19.70;99.90
14119;DHT22;7138;49.246;9.100;2023-07-31T07:49:31;19.90;99.90
14119;DHT22;7138;49.246;9.100;2023-07-31T07:51:57;20.00;99.90
14119;DHT22;7138;49.246;9.100;2023-07-31T07:54:23;20.10;99.90
14119;DHT22;7138;49.246;9.100;2023-07-31T07:56:50;20.20;99.90
14119;DHT22;7138;49.246;9.100;2023-07-31T07:59:16;20.40;99.90
14119;DHT22;7138;49.246;9.100;2023-07-31T08:01:41;20.30;99.90
14119;DHT22;7138;49.246;9.100;2023-07-31T08:04:07;20.80;99.90
14119;DHT22;7138;49.246;9.100;2023-07-31T08:06:33;20.90;99.90
14119;DHT22;7138;49.246;9.100;2023-07-31T08:08:59;21.10;99.90
14119;DHT22;7138;49.246;9.100;2023-07-31T08:11:25;21.50;99.90
14119;DHT22;7138;49.246;9.100;2023-07-31T08:13:52;21.20;99.90
14119;DHT22;7138;49.246;9.100;2023-07-31T08:16:18;21.30;99.90
14119;DHT22;7138;49.246;9.100;2023-07-31T08:18:44;21.50;99.90
14119;DHT22;7138;49.246;9.100;2023-07-31T08:21:10;21.70;99.90
14119;DHT22;7138;49.246;9.100;2023-07-31T08:23:36;21.70;99.90
14119;DHT22;7138;49.246;9.100;2023-07-31T08:26:02;21.50;99.90
14119;DHT22;7138;49.246;9.100;2023-07-31T08:28:27;21.40;99.90
14119;DHT22;7138;49.246;9.100;2023-07-31T08:30:54;21.20;99.90
14119;DHT22;7138;49.246;9.100;2023-07-31T08:33:20;21.10;99.90
14119;DHT22;7138;49.246;9.100;2023-07-31T08:35:46;21.70;99.90
14119;DHT22;7138;49.246;9.100;2023-07-31T08:38:12;21.50;99.90
14119;DHT22;7138;49.246;9.100;2023-07-31T08:40:38;21.70;99.90
14119;DHT22;7138;49.246;9.100;2023-07-31T08:43:04;21.40;99.90
14119;DHT22;7138;49.246;9.100;2023-07-31T08:45:31;21.40;99.90
14119;DHT22;7138;49.246;9.100;2023-07-31T08:47:59;21.40;99.90
14119;DHT22;7138;49.246;9.100;2023-07-31T08:50:25;21.10;99.90
14119;DHT22;7138;49.246;9.100;2023-07-31T08:52:52;21.00;99.90
14119;DHT22;7138;49.246;9.100;2023-07-31T08:55:18;20.70;99.90
14119;DHT22;7138;49.246;9.100;2023-07-31T08:57:51;20.60;99.90
14119;DHT22;7138;49.246;9.100;2023-07-31T09:00:19;20.60;99.90
14119;DHT22;7138;49.246;9.100;2023-07-31T09:02:54;20.60;99.90
14119;DHT22;7138;49.246;9.100;2023-07-31T09:05:26;20.70;99.90
14119;DHT22;7138;49.246;9.100;2023-07-31T09:07:53;20.60;99.90
14119;DHT22;7138;49.246;9.100;2023-07-31T09:10:21;20.50;99.90
14119;DHT22;7138;49.246;9.100;2023-07-31T09:12:48;20.90;99.90
14119;DHT22;7138;49.246;9.100;2023-07-31T09:15:16;21.00;99.90
14119;DHT22;7138;49.246;9.100;2023-07-31T09:17:43;20.90;99.90
14119;DHT22;7138;49.246;9.100;2023-07-31T09:20:13;20.80;99.90
14119;DHT22;7138;49.246;9.100;2023-07-31T09:22:42;20.80;99.90
14119;DHT22;7138;49.246;9.100;2023-07-31T09:25:16;21.20;99.90
14119;DHT22;7138;49.246;9.100;2023-07-31T09:27:46;21.60;99.90
14119;DHT22;7138;49.246;9.100;2023-07-31T09:30:13;22.20;99.90
14119;DHT22;7138;49.246;9.100;2023-07-31T09:32:39;21.90;99.90
14119;DHT22;7138;49.246;9.100;2023-07-31T09:35:13;21.60;99.90
14119;DHT22;7138;49.246;9.100;2023-07-31T09:37:48;21.40;99.90
14119;DHT22;7138;49.246;9.100;2023-07-31T09:40:25;21.70;99.90
14119;DHT22;7138;49.246;9.100;2023-07-31T09:42:53;21.60;99.90
14119;DHT22;7138;49.246;9.100;2023-07-31T09:45:19;21.60;99.90
14119;DHT22;7138;49.246;9.100;2023-07-31T09:47:46;22.00;99.90
14119;DHT22;7138;49.246;9.100;2023-07-31T09:50:14;22.60;99.90
14119;DHT22;7138;49.246;9.100;2023-07-31T09:52:41;22.40;99.90
14119;DHT22;7138;49.246;9.100;2023-07-31T09:55:09;22.60;99.90
14119;DHT22;7138;49.246;9.100;2023-07-31T09:57:38;23.00;99.90
14119;DHT22;7138;49.246;9.100;2023-07-31T10:00:06;22.90;99.90
14119;DHT22;7138;49.246;9.100;2023-07-31T10:02:35;22.60;99.90
14119;DHT22;7138;49.246;9.100;2023-07-31T10:05:03;22.70;99.90
14119;DHT22;7138;49.246;9.100;2023-07-31T10:07:31;22.30;99.90
14119;DHT22;7138;49.246;9.100;2023-07-31T10:09:59;22.40;99.90
14119;DHT22;7138;49.246;9.100;2023-07-31T10:12:27;22.60;99.90
14119;DHT22;7138;49.246;9.100;2023-07-31T10:14:55;22.60;99.90
14119;DHT22;7138;49.246;9.100;2023-07-31T10:17:21;22.50;99.90
14119;DHT22;7138;49.246;9.100;2023-07-31T10:19:49;22.60;99.90
14119;DHT22;7138;49.246;9.100;2023-07-31T10:22:15;22.40;99.90
14119;DHT22;7138;49.246;9.100;2023-07-31T10:24:42;22.60;99.90
14119;DHT22;7138;49.246;9.100;2023-07-31T10:27:09;22.90;99.90
14119;DHT22;7138;49.246;9.100;2023-07-31T10:29:37;23.00;99.90
14119;DHT22;7138;49.246;9.100;2023-07-31T10:32:04;23.10;99.90
14119;DHT22;7138;49.246;9.100;2023-07-31T10:34:34;23.00;99.90
14119;DHT22;7138;49.246;9.100;2023-07-31T10:37:19;23.60;99.90
14119;DHT22;7138;49.246;9.100;2023-07-31T10:39:58;23.30;99.90
14119;DHT22;7138;49.246;9.100;2023-07-31T10:42:33;22.80;99.90
14119;DHT22;7138;49.246;9.100;2023-07-31T10:45:03;23.00;99.90
14119;DHT22;7138;49.246;9.100;2023-07-31T10:47:30;23.30;99.90
14119;DHT22;7138;49.246;9.100;2023-07-31T10:50:28;23.20;99.90
14119;DHT22;7138;49.246;9.100;2023-07-31T10:52:56;22.60;99.90
14119;DHT22;7138;49.246;9.100;2023-07-31T10:55:31;22.30;99.90
14119;DHT22;7138;49.246;9.100;2023-07-31T10:58:04;21.90;99.90
14119;DHT22;7138;49.246;9.100;2023-07-31T11:00:33;21.90;99.90
14119;DHT22;7138;49.246;9.100;2023-07-31T11:03:01;21.60;99.90
14119;DHT22;7138;49.246;9.100;2023-07-31T11:05:43;21.70;99.90
14119;DHT22;7138;49.246;9.100;2023-07-31T11:08:17;21.80;99.90
14119;DHT22;7138;49.246;9.100;2023-07-31T11:10:46;21.90;99.90
14119;DHT22;7138;49.246;9.100;2023-07-31T11:13:13;22.20;99.90
14119;DHT22;7138;49.246;9.100;2023-07-31T11:15:41;22.30;99.90
14119;DHT22;7138;49.246;9.100;2023-07-31T11:18:07;22.30;99.90
14119;DHT22;7138;49.246;9.100;2023-07-31T11:20:35;22.00;99.90
14119;DHT22;7138;49.246;9.100;2023-07-31T11:23:02;22.00;99.90
14119;DHT22;7138;49.246;9.100;2023-07-31T11:25:29;22.10;99.90
14119;DHT22;7138;49.246;9.100;2023-07-31T11:27:57;22.10;99.90
14119;DHT22;7138;49.246;9.100;2023-07-31T11:30:23;22.00;99.90
14119;DHT22;7138;49.246;9.100;2023-07-31T11:32:50;21.80;99.90
14119;DHT22;7138;49.246;9.100;2023-07-31T11:35:17;21.60;99.90
14119;DHT22;7138;49.246;9.100;2023-07-31T11:37:44;21.40;99.90
14119;DHT22;7138;49.246;9.100;2023-07-31T11:40:11;21.40;99.90
14119;DHT22;7138;49.246;9.100;2023-07-31T11:42:37;21.40;99.90
14119;DHT22;7138;49.246;9.100;2023-07-31T11:45:04;21.40;99.90
14119;DHT22;7138;49.246;9.100;2023-07-31T11:47:32;21.70;99.90
14119;DHT22;7138;49.246;9.100;2023-07-31T11:50:01;22.00;99.90
14119;DHT22;7138;49.246;9.100;2023-07-31T11:52:30;22.30;99.90
14119;DHT22;7138;49.246;9.100;2023-07-31T11:55:03;22.60;99.90
14119;DHT22;7138;49.246;9.100;2023-07-31T11:57:31;22.30;99.90
14119;DHT22;7138;49.246;9.100;2023-07-31T11:59:58;22.90;99.90
14119;DHT22;7138;49.246;9.100;2023-07-31T12:02:24;22.90;99.90
14119;DHT22;7138;49.246;9.100;2023-07-31T12:04:50;22.90;99.90
14119;DHT22;7138;49.246;9.100;2023-07-31T12:07:18;23.20;99.90
14119;DHT22;7138;49.246;9.100;2023-07-31T12:09:53;22.50;99.90
14119;DHT22;7138;49.246;9.100;2023-07-31T12:12:20;22.20;99.90
14119;DHT22;7138;49.246;9.100;2023-07-31T12:14:46;22.00;99.90
14119;DHT22;7138;49.246;9.100;2023-07-31T12:17:12;21.80;99.90
14119;DHT22;7138;49.246;9.100;2023-07-31T12:19:40;21.60;99.90
14119;DHT22;7138;49.246;9.100;2023-07-31T12:22:11;21.60;99.90
14119;DHT22;7138;49.246;9.100;2023-07-31T12:24:39;21.70;99.90
14119;DHT22;7138;49.246;9.100;2023-07-31T12:27:09;21.70;99.90
14119;DHT22;7138;49.246;9.100;2023-07-31T12:29:36;21.50;99.90
14119;DHT22;7138;49.246;9.100;2023-07-31T12:32:04;21.50;99.90
14119;DHT22;7138;49.246;9.100;2023-07-31T12:34:31;21.60;99.90
14119;DHT22;7138;49.246;9.100;2023-07-31T12:37:07;21.60;99.90
14119;DHT22;7138;49.246;9.100;2023-07-31T12:39:33;21.90;99.90
14119;DHT22;7138;49.246;9.100;2023-07-31T12:42:00;21.80;99.90
14119;DHT22;7138;49.246;9.100;2023-07-31T12:44:26;21.90;99.90
14119;DHT22;7138;49.246;9.100;2023-07-31T12:46:52;21.80;99.90
14119;DHT22;7138;49.246;9.100;2023-07-31T12:49:18;21.90;99.90
14119;DHT22;7138;49.246;9.100;2023-07-31T12:51:44;22.00;99.90
14119;DHT22;7138;49.246;9.100;2023-07-31T12:54:09;21.90;99.90
14119;DHT22;7138;49.246;9.100;2023-07-31T12:56:35;21.90;99.90
14119;DHT22;7138;49.246;9.100;2023-07-31T12:59:02;21.90;99.90
14119;DHT22;7138;49.246;9.100;2023-07-31T13:01:28;21.80;99.90
14119;DHT22;7138;49.246;9.100;2023-07-31T13:03:54;21.90;99.90
14119;DHT22;7138;49.246;9.100;2023-07-31T13:06:20;22.00;99.90
14119;DHT22;7138;49.246;9.100;2023-07-31T13:08:46;22.00;99.90
14119;DHT22;7138;49.246;9.100;2023-07-31T13:11:12;21.90;99.90
14119;DHT22;7138;49.246;9.100;2023-07-31T13:13:37;21.80;99.90
14119;DHT22;7138;49.246;9.100;2023-07-31T13:16:04;21.80;99.90
14119;DHT22;7138;49.246;9.100;2023-07-31T13:18:30;21.80;99.90
14119;DHT22;7138;49.246;9.100;2023-07-31T13:20:56;21.90;99.90
14119;DHT22;7138;49.246;9.100;2023-07-31T13:23:22;22.10;99.90
14119;DHT22;7138;49.246;9.100;2023-07-31T13:25:48;22.40;99.90
14119;DHT22;7138;49.246;9.100;2023-07-31T13:28:14;22.40;99.90
14119;DHT22;7138;49.246;9.100;2023-07-31T13:30:40;22.40;99.90
14119;DHT22;7138;49.246;9.100;2023-07-31T13:33:07;22.60;99.90
14119;DHT22;7138;49.246;9.100;2023-07-31T13:35:33;22.40;99.90
14119;DHT22;7138;49.246;9.100;2023-07-31T13:37:59;22.30;99.90
14119;DHT22;7138;49.246;9.100;2023-07-31T13:40:25;22.20;99.90
14119;DHT22;7138;49.246;9.100;2023-07-31T13:42:50;22.20;99.90
14119;DHT22;7138;49.246;9.100;2023-07-31T13:45:16;22.10;99.90
14119;DHT22;7138;49.246;9.100;2023-07-31T13:47:42;22.20;99.90
14119;DHT22;7138;49.246;9.100;2023-07-31T13:50:10;22.30;99.90
14119;DHT22;7138;49.246;9.100;2023-07-31T13:52:36;22.20;99.90
14119;DHT22;7138;49.246;9.100;2023-07-31T13:55:01;22.10;99.90
14119;DHT22;7138;49.246;9.100;2023-07-31T13:57:27;22.00;99.90
14119;DHT22;7138;49.246;9.100;2023-07-31T13:59:53;22.10;99.90
14119;DHT22;7138;49.246;9.100;2023-07-31T14:02:19;22.10;99.90
14119;DHT22;7138;49.246;9.100;2023-07-31T14:04:45;22.20;99.90
14119;DHT22;7138;49.246;9.100;2023-07-31T14:07:12;22.20;99.90
14119;DHT22;7138;49.246;9.100;2023-07-31T14:09:38;22.10;99.90
14119;DHT22;7138;49.246;9.100;2023-07-31T14:12:05;22.10;99.90
14119;DHT22;7138;49.246;9.100;2023-07-31T14:14:31;22.20;99.90
14119;DHT22;7138;49.246;9.100;2023-07-31T14:16:59;22.20;99.90
14119;DHT22;7138;49.246;9.100;2023-07-31T14:19:25;22.30;99.90
14119;DHT22;7138;49.246;9.100;2023-07-31T14:21:51;22.50;99.90
14119;DHT22;7138;49.246;9.100;2023-07-31T14:24:18;22.80;99.90
14119;DHT22;7138;49.246;9.100;2023-07-31T14:26:43;22.60;99.90
14119;DHT22;7138;49.246;9.100;2023-07-31T14:29:09;22.70;99.90
14119;DHT22;7138;49.246;9.100;2023-07-31T14:31:35;22.70;99.90
14119;DHT22;7138;49.246;9.100;2023-07-31T14:34:01;22.50;99.90
14119;DHT22;7138;49.246;9.100;2023-07-31T14:36:27;22.30;99.90
14119;DHT22;7138;49.246;9.100;2023-07-31T14:38:53;22.20;99.90
14119;DHT22;7138;49.246;9.100;2023-07-31T14:41:20;22.00;99.90
14119;DHT22;7138;49.246;9.100;2023-07-31T14:43:46;22.00;99.90
14119;DHT22;7138;49.246;9.100;2023-07-31T14:46:12;22.10;99.90
14119;DHT22;7138;49.246;9.100;2023-07-31T14:48:38;22.10;99.90
14119;DHT22;7138;49.246;9.100;2023-07-31T14:51:03;22.20;99.90
14119;DHT22;7138;49.246;9.100;2023-07-31T14:53:29;22.30;99.90
14119;DHT22;7138;49.246;9.100;2023-07-31T14:55:55;22.50;99.90
14119;DHT22;7138;49.246;9.100;2023-07-31T14:58:23;22.70;99.90
14119;DHT22;7138;49.246;9.100;2023-07-31T15:00:50;22.40;99.90
14119;DHT22;7138;49.246;9.100;2023-07-31T15:03:16;22.40;99.90
14119;DHT22;7138;49.246;9.100;2023-07-31T15:05:41;22.30;99.90
14119;DHT22;7138;49.246;9.100;2023-07-31T15:08:07;22.30;99.90
14119;DHT22;7138;49.246;9.100;2023-07-31T15:10:33;22.20;99.90
14119;DHT22;7138;49.246;9.100;2023-07-31T15:12:59;22.10;99.90
14119;DHT22;7138;49.246;9.100;2023-07-31T15:15:28;22.10;99.90
14119;DHT22;7138;49.246;9.100;2023-07-31T15:17:54;22.20;99.90
14119;DHT22;7138;49.246;9.100;2023-07-31T15:20:20;22.20;99.90
14119;DHT22;7138;49.246;9.100;2023-07-31T15:22:46;22.30;99.90
14119;DHT22;7138;49.246;9.100;2023-07-31T15:25:13;22.30;99.90
14119;DHT22;7138;49.246;9.100;2023-07-31T15:27:38;22.30;99.90
14119;DHT22;7138;49.246;9.100;2023-07-31T15:30:06;22.20;99.90
14119;DHT22;7138;49.246;9.100;2023-07-31T15:32:34;22.20;99.90
14119;DHT22;7138;49.246;9.100;2023-07-31T15:34:59;22.40;99.90
14119;DHT22;7138;49.246;9.100;2023-07-31T15:37:25;22.50;99.90
14119;DHT22;7138;49.246;9.100;2023-07-31T15:39:51;22.50;99.90
14119;DHT22;7138;49.246;9.100;2023-07-31T15:42:17;22.50;99.90
14119;DHT22;7138;49.246;9.100;2023-07-31T15:44:43;22.60;99.90